Elizabeth Blieler — WDG2711 — position and weather

sailwx.info

Track history (hours):
 
Tides and Currents Weather Stations Pressure Air Temp Water Temp Dewpoint Dewpoint Depression Visibility Wind Speed Wind Dir Waves Ship Positions

Elizabeth Blieler

Owner: Kelly O Towing LLC, Hull, TX. More information available from US FCC via Universal Licensing System and Coast Guard Vessel Documentation Center.

Last reported at 2017-Oct-19 08:15 UTC. Time now 2017-Oct-20 06:48 UTC.
Position N 29°33' W 090°24'.

MMSI: 367518460.

Date/timePositionNaut miles runAvg speedWind from/ knotsBaromVisibWave heightAir tempDewpointWater temp
2017-Oct-19 08:15N 29°33' W 090°24'1 4.7
2017-Oct-19 08:00N 29°33' W 090°25'3 5.8
2017-Oct-19 07:31N 29°33' W 090°28'3 5.9
2017-Oct-19 07:01N 29°34' W 090°32'3 5.8
2017-Oct-19 06:31N 29°34' W 090°35'2 4.8
2017-Oct-19 06:01N 29°35' W 090°38'3 5.7
2017-Oct-19 05:31N 29°36' W 090°40'2 3.8
2017-Oct-19 05:01N 29°36' W 090°43'2 4.1
2017-Oct-19 04:30N 29°34' W 090°44'1 2.8
2017-Oct-19 04:00N 29°33' W 090°45'0 0.0
2017-Oct-19 03:31N 29°33' W 090°45'0 0.7
2017-Oct-19 03:01N 29°33' W 090°45'3 5.4
2017-Oct-19 02:30N 29°32' W 090°48'5 6.2
2017-Oct-19 01:45N 29°33' W 090°54'55 4.1
2017-Oct-18 12:13N 29°51' W 091°53'3 5.5
2017-Oct-18 11:39N 29°50' W 091°57'1 5.6
2017-Oct-18 11:30N 29°50' W 091°58'3 5.6
2017-Oct-18 11:01N 29°49' W 092°01'3 5.5
2017-Oct-18 10:31N 29°48' W 092°04'2 4.5
2017-Oct-18 10:01N 29°48' W 092°06'3 5.1
2017-Oct-18 09:31N 29°47' W 092°09'2 4.5
2017-Oct-18 09:01N 29°47' W 092°12'1 2.2
2017-Oct-18 08:31N 29°47' W 092°13'1 2.1
2017-Oct-18 08:01N 29°48' W 092°14'0 0.0
2017-Oct-18 07:31N 29°48' W 092°14'0 0.0
2017-Oct-18 07:01N 29°48' W 092°14'0 0.3
2017-Oct-18 06:31N 29°48' W 092°14'0 0.2
2017-Oct-18 06:01N 29°48' W 092°14'41 5.0
2017-Oct-17 21:49N 29°56' W 093°00'2 5.3
2017-Oct-17 21:30N 29°56' W 093°02'2 3.1
2017-Oct-17 21:00N 29°56' W 093°04'0 0.3
2017-Oct-17 20:31N 29°56' W 093°04'0 0.0
2017-Oct-17 20:01N 29°56' W 093°04'0 0.0
2017-Oct-17 19:30N 29°56' W 093°04'0 0.1
2017-Oct-17 18:58N 29°56' W 093°04'0 0.5
2017-Oct-17 18:30N 29°56' W 093°05'0 0.0
2017-Oct-17 17:58N 29°56' W 093°05'1 2.3
2017-Oct-17 17:31N 29°56' W 093°06'2 3.7
2017-Oct-17 17:01N 29°56' W 093°08'1 1.9
2017-Oct-17 16:31N 29°56' W 093°09'0 0.0
2017-Oct-17 16:01N 29°56' W 093°09'0 0.0
2017-Oct-17 15:31N 29°56' W 093°09'0 0.0
2017-Oct-17 15:00N 29°56' W 093°09'0 0.0
2017-Oct-17 14:30N 29°56' W 093°09'0 0.0
2017-Oct-17 14:00N 29°56' W 093°09'0 0.0
2017-Oct-17 13:30N 29°56' W 093°09'0 0.0
2017-Oct-17 13:00N 29°56' W 093°09'0 0.0
2017-Oct-17 12:30N 29°56' W 093°09'0 0.0
2017-Oct-17 12:00N 29°56' W 093°09'0 0.0
2017-Oct-17 11:30N 29°56' W 093°09'0 0.0
2017-Oct-17 11:00N 29°56' W 093°09'0 0.0
2017-Oct-17 10:30N 29°56' W 093°09'0 0.0
2017-Oct-17 10:00N 29°56' W 093°09'0 0.0
2017-Oct-17 09:30N 29°56' W 093°09'0 0.0
2017-Oct-17 09:00N 29°56' W 093°09'0 0.0
2017-Oct-17 08:30N 29°56' W 093°09'0 0.0
2017-Oct-17 08:00N 29°56' W 093°09'0 0.0
2017-Oct-17 07:30N 29°56' W 093°09'0 0.0
2017-Oct-17 07:00N 29°56' W 093°09'0 0.0
2017-Oct-17 06:30N 29°56' W 093°09'0 0.0
2017-Oct-17 06:00N 29°56' W 093°09'0 0.0
2017-Oct-17 05:30N 29°56' W 093°09'0 0.0
2017-Oct-17 05:00N 29°56' W 093°09'0 0.0
2017-Oct-17 04:30N 29°56' W 093°09'0 0.0
2017-Oct-17 04:00N 29°56' W 093°09'0 0.0
2017-Oct-17 03:30N 29°56' W 093°09'0 0.0
2017-Oct-17 03:00N 29°56' W 093°09'0 0.0
2017-Oct-17 02:30N 29°56' W 093°09'0 0.0
2017-Oct-17 02:00N 29°56' W 093°09'0 0.0
2017-Oct-17 01:30N 29°56' W 093°09'0 0.0
2017-Oct-17 01:00N 29°56' W 093°09'0 0.0
2017-Oct-17 00:30N 29°56' W 093°09'0 0.0
2017-Oct-17 00:00N 29°56' W 093°09'0 0.0
2017-Oct-16 23:30N 29°56' W 093°09'0 0.1
2017-Oct-16 23:00N 29°56' W 093°09'0 0.6
2017-Oct-16 22:30N 29°56' W 093°09'1 1.3
2017-Oct-16 22:00N 29°56' W 093°10'0 0.0
2017-Oct-16 21:30N 29°56' W 093°10'0 0.3
2017-Oct-16 21:00N 29°56' W 093°10'0 0.0
2017-Oct-16 20:30N 29°56' W 093°10'0 0.1
2017-Oct-16 20:00N 29°56' W 093°10'0 0.1
2017-Oct-16 19:30N 29°56' W 093°10'0 0.0
2017-Oct-16 19:00N 29°56' W 093°10'0 0.3
2017-Oct-16 18:30N 29°56' W 093°10'0 0.6
2017-Oct-16 18:00N 29°56' W 093°09'0 0.0
2017-Oct-16 17:30N 29°56' W 093°09'0 0.0
2017-Oct-16 17:00N 29°56' W 093°09'0 0.2
2017-Oct-16 16:30N 29°56' W 093°09'0 0.0
2017-Oct-16 16:01N 29°56' W 093°09'0 0.0
2017-Oct-16 15:31N 29°56' W 093°09'0 0.0
2017-Oct-16 15:01N 29°56' W 093°09'0 0.0
2017-Oct-16 14:31N 29°56' W 093°09'0 0.0
2017-Oct-16 13:31N 29°56' W 093°09'0 0.0
2017-Oct-16 13:01N 29°56' W 093°09'0 0.0
2017-Oct-16 12:31N 29°56' W 093°09'0 0.0
2017-Oct-16 12:01N 29°56' W 093°09'0 0.0
2017-Oct-16 11:31N 29°56' W 093°09'0 0.0
2017-Oct-16 11:01N 29°56' W 093°09'0 0.0
2017-Oct-16 10:31N 29°56' W 093°09'0 0.0
2017-Oct-16 10:01N 29°56' W 093°09'0 0.0
2017-Oct-16 09:31N 29°56' W 093°09'0 0.0
2017-Oct-16 09:01N 29°56' W 093°09'0 0.0
2017-Oct-16 08:31N 29°56' W 093°09'0 0.0
2017-Oct-16 08:01N 29°56' W 093°09'0 0.0
2017-Oct-16 07:31N 29°56' W 093°09'0 0.0
2017-Oct-16 07:01N 29°56' W 093°09'0 0.0
2017-Oct-16 06:31N 29°56' W 093°09'0 0.0
2017-Oct-16 06:01N 29°56' W 093°09'0 0.0
2017-Oct-16 05:31N 29°56' W 093°09'0 0.0
2017-Oct-16 05:01N 29°56' W 093°09'0 0.0
2017-Oct-16 04:31N 29°56' W 093°09'0 0.0
2017-Oct-16 04:01N 29°56' W 093°09'0 0.0
2017-Oct-16 03:31N 29°56' W 093°09'0 0.1
2017-Oct-16 03:00N 29°56' W 093°09'1 2.8
2017-Oct-16 02:31N 29°57' W 093°10'3 5.5
2017-Oct-16 02:01N 29°59' W 093°12'3 5.1
2017-Oct-16 01:31N 30°01' W 093°14'2 4.8
2017-Oct-16 01:01N 30°03' W 093°16'2 4.6
2017-Oct-16 00:31N 30°05' W 093°17'1 1.7
2017-Oct-16 00:01N 30°05' W 093°18'1 1.6
2017-Oct-15 23:31N 30°06' W 093°18'0 0.0
2017-Oct-15 23:01N 30°06' W 093°18'0 0.0
2017-Oct-15 22:31N 30°06' W 093°18'0 0.0
2017-Oct-15 22:00N 30°06' W 093°18'0 0.0
2017-Oct-15 21:30N 30°06' W 093°18'0 0.0
2017-Oct-15 21:01N 30°06' W 093°18'0 0.1
2017-Oct-15 20:31N 30°06' W 093°18'2 4.1
2017-Oct-15 20:00N 30°05' W 093°20'3 5.2
2017-Oct-15 19:31N 30°04' W 093°23'3 5.8
2017-Oct-15 19:01N 30°04' W 093°26'3 5.7
2017-Oct-15 18:29N 30°04' W 093°30'20 0.7
2017-Oct-14 14:23N 29°58' W 093°52'0 0.0
2017-Oct-14 14:00N 29°58' W 093°52'10 5.5
2017-Oct-14 12:16N 29°50' W 093°58'0 1.0
2017-Oct-14 12:00N 29°50' W 093°57'4 7.3
2017-Oct-14 11:31N 29°53' W 093°55'6 2.2
2017-Oct-14 08:47N 29°58' W 093°51'4 3.7
2017-Oct-14 07:39N 29°60' W 093°47'1 5.0
2017-Oct-14 07:31N 30°00' W 093°46'4 5.2
2017-Oct-14 06:45N 30°03' W 093°43'1 5.1
2017-Oct-14 06:30N 30°03' W 093°42'1 2.8
2017-Oct-14 06:01N 30°04' W 093°40'3 5.1
2017-Oct-14 05:30N 30°04' W 093°37'2 4.9
2017-Oct-14 05:01N 30°04' W 093°35'2 4.6
2017-Oct-14 04:31N 30°04' W 093°32'2 4.0
2017-Oct-14 04:01N 30°04' W 093°30'2 4.7
2017-Oct-14 03:31N 30°04' W 093°27'2 4.6
2017-Oct-14 03:01N 30°04' W 093°24'2 4.5
2017-Oct-14 02:31N 30°04' W 093°22'2 3.6
2017-Oct-14 02:00N 30°05' W 093°20'1 1.5
2017-Oct-14 01:30N 30°04' W 093°20'3 5.2
2017-Oct-14 01:01N 30°02' W 093°20'3 5.6
2017-Oct-14 00:30N 29°59' W 093°20'12 4.1
2017-Oct-13 21:39N 29°47' W 093°20'0 0.2
2017-Oct-13 21:22N 29°47' W 093°20'0 0.0
2017-Oct-13 13:48N 29°47' W 093°20'0 0.2
2017-Oct-13 13:27N 29°47' W 093°20'0 0.0
2017-Oct-13 11:49N 29°47' W 093°20'0 0.0
2017-Oct-13 08:43N 29°47' W 093°20'0 0.1
2017-Oct-13 08:30N 29°47' W 093°20'1 2.3
2017-Oct-13 08:00N 29°48' W 093°21'3 5.5
2017-Oct-13 07:30N 29°51' W 093°21'3 6.5
2017-Oct-13 07:00N 29°54' W 093°21'3 6.9
2017-Oct-13 06:30N 29°57' W 093°20'3 7.0
2017-Oct-13 06:00N 30°01' W 093°20'4 7.0
2017-Oct-13 05:30N 30°04' W 093°20'1 2.0
2017-Oct-13 05:00N 30°04' W 093°21'2 4.6
2017-Oct-13 04:30N 30°04' W 093°23'3 6.6
2017-Oct-13 04:00N 30°04' W 093°27'4 7.1
2017-Oct-13 03:30N 30°04' W 093°31'11 1.0
2017-Oct-12 16:55N 30°03' W 093°44'2 4.3
2017-Oct-12 16:30N 30°04' W 093°42'2 3.8
2017-Oct-12 15:59N 30°04' W 093°40'2 4.2
2017-Oct-12 15:30N 30°04' W 093°37'2 4.1
2017-Oct-12 14:59N 30°04' W 093°35'2 4.2
2017-Oct-12 14:30N 30°04' W 093°32'2 4.3
2017-Oct-12 14:00N 30°04' W 093°30'2 4.3
2017-Oct-12 13:30N 30°04' W 093°28'2 4.3
2017-Oct-12 13:00N 30°04' W 093°25'2 4.1
2017-Oct-12 12:30N 30°04' W 093°23'1 2.9
2017-Oct-12 12:00N 30°04' W 093°21'2 3.2
2017-Oct-12 11:30N 30°05' W 093°20'1 3.0
2017-Oct-12 11:00N 30°06' W 093°19'0 0.5
2017-Oct-12 10:30N 30°06' W 093°18'0 0.0
2017-Oct-12 10:00N 30°06' W 093°18'0 0.3
2017-Oct-12 09:30N 30°06' W 093°19'0 0.5
2017-Oct-12 09:00N 30°06' W 093°18'0 0.1
2017-Oct-12 08:30N 30°06' W 093°18'0 0.0
2017-Oct-12 08:00N 30°06' W 093°18'0 0.1
2017-Oct-12 07:30N 30°06' W 093°18'0 0.1
2017-Oct-12 07:00N 30°06' W 093°18'0 0.0
2017-Oct-12 06:30N 30°06' W 093°18'0 0.0
2017-Oct-12 06:00N 30°06' W 093°18'0 0.0
2017-Oct-12 05:30N 30°06' W 093°18'0 0.3
2017-Oct-12 05:00N 30°06' W 093°18'0 0.4
2017-Oct-12 04:30N 30°06' W 093°18'1 1.3
2017-Oct-12 04:00N 30°05' W 093°18'1 1.7
2017-Oct-12 03:30N 30°05' W 093°17'1 1.6
2017-Oct-12 03:00N 30°04' W 093°16'0 0.1
2017-Oct-12 02:30N 30°04' W 093°16'0 0.0
2017-Oct-12 02:00N 30°04' W 093°16'0 0.0
2017-Oct-12 01:30N 30°04' W 093°16'0 0.3
2017-Oct-12 01:00N 30°04' W 093°16'1 1.1
2017-Oct-12 00:30N 30°04' W 093°16'1 2.8
2017-Oct-12 00:00N 30°03' W 093°16'0 0.5
2017-Oct-11 23:30N 30°02' W 093°15'1 2.2
2017-Oct-11 23:00N 30°02' W 093°14'2 3.4
2017-Oct-11 22:30N 30°00' W 093°14'1 1.7
2017-Oct-11 22:00N 29°60' W 093°13'1 2.0
2017-Oct-11 21:30N 29°59' W 093°12'1 1.3
2017-Oct-11 21:00N 29°58' W 093°12'3 3.5
2017-Oct-11 20:11N 29°56' W 093°09'1 4.0
2017-Oct-11 20:00N 29°56' W 093°09'1 1.1
2017-Oct-11 19:23N 29°56' W 093°08'114 3.5
2017-Oct-10 10:43N 29°36' W 090°58'2 4.1
2017-Oct-10 10:13N 29°34' W 090°57'1 4.0
2017-Oct-10 10:00N 29°34' W 090°56'2 4.4
2017-Oct-10 09:28N 29°33' W 090°54'2 4.2
2017-Oct-10 09:00N 29°32' W 090°52'2 4.5
2017-Oct-10 08:30N 29°32' W 090°49'2 4.5
2017-Oct-10 08:00N 29°32' W 090°46'2 3.6
2017-Oct-10 07:30N 29°34' W 090°45'2 3.4
2017-Oct-10 07:00N 29°34' W 090°43'2 3.1
2017-Oct-10 06:30N 29°36' W 090°43'1 2.8
2017-Oct-10 06:00N 29°37' W 090°42'1 1.3
2017-Oct-10 05:30N 29°36' W 090°41'0 0.7
2017-Oct-10 05:00N 29°36' W 090°41'1 2.0
2017-Oct-10 04:30N 29°36' W 090°40'1 1.5
2017-Oct-10 04:00N 29°36' W 090°39'0 0.9
2017-Oct-10 03:30N 29°35' W 090°38'1 1.5
2017-Oct-10 03:00N 29°35' W 090°38'2 3.8
2017-Oct-10 02:30N 29°35' W 090°36'  
Track history (hours):
 
Tides and Currents Weather Stations Pressure Air Temp Water Temp Dewpoint Dewpoint Depression Visibility Wind Speed Wind Dir Waves Ship Positions

Elizabeth Blieler

Owner: Kelly O Towing LLC, Hull, TX. More information available from US FCC via Universal Licensing System and Coast Guard Vessel Documentation Center.

Last reported at 2017-Oct-19 08:15 UTC. Time now 2017-Oct-20 06:48 UTC.
Position N 29°33' W 090°24'.

MMSI: 367518460.

Date/timePositionNaut miles runAvg speedWind from/ knotsBaromVisibWave heightAir tempDewpointWater temp
2017-Oct-19 08:15N 29°33' W 090°24'1 4.7
2017-Oct-19 08:00N 29°33' W 090°25'3 5.8
2017-Oct-19 07:31N 29°33' W 090°28'3 5.9
2017-Oct-19 07:01N 29°34' W 090°32'3 5.8
2017-Oct-19 06:31N 29°34' W 090°35'2 4.8
2017-Oct-19 06:01N 29°35' W 090°38'3 5.7
2017-Oct-19 05:31N 29°36' W 090°40'2 3.8
2017-Oct-19 05:01N 29°36' W 090°43'2 4.1
2017-Oct-19 04:30N 29°34' W 090°44'1 2.8
2017-Oct-19 04:00N 29°33' W 090°45'0 0.0
2017-Oct-19 03:31N 29°33' W 090°45'0 0.7
2017-Oct-19 03:01N 29°33' W 090°45'3 5.4
2017-Oct-19 02:30N 29°32' W 090°48'5 6.2
2017-Oct-19 01:45N 29°33' W 090°54'55 4.1
2017-Oct-18 12:13N 29°51' W 091°53'3 5.5
2017-Oct-18 11:39N 29°50' W 091°57'1 5.6
2017-Oct-18 11:30N 29°50' W 091°58'3 5.6
2017-Oct-18 11:01N 29°49' W 092°01'3 5.5
2017-Oct-18 10:31N 29°48' W 092°04'2 4.5
2017-Oct-18 10:01N 29°48' W 092°06'3 5.1
2017-Oct-18 09:31N 29°47' W 092°09'2 4.5
2017-Oct-18 09:01N 29°47' W 092°12'1 2.2
2017-Oct-18 08:31N 29°47' W 092°13'1 2.1
2017-Oct-18 08:01N 29°48' W 092°14'0 0.0
2017-Oct-18 07:31N 29°48' W 092°14'0 0.0
2017-Oct-18 07:01N 29°48' W 092°14'0 0.3
2017-Oct-18 06:31N 29°48' W 092°14'0 0.2
2017-Oct-18 06:01N 29°48' W 092°14'41 5.0
2017-Oct-17 21:49N 29°56' W 093°00'2 5.3
2017-Oct-17 21:30N 29°56' W 093°02'2 3.1
2017-Oct-17 21:00N 29°56' W 093°04'0 0.3
2017-Oct-17 20:31N 29°56' W 093°04'0 0.0
2017-Oct-17 20:01N 29°56' W 093°04'0 0.0
2017-Oct-17 19:30N 29°56' W 093°04'0 0.1
2017-Oct-17 18:58N 29°56' W 093°04'0 0.5
2017-Oct-17 18:30N 29°56' W 093°05'0 0.0
2017-Oct-17 17:58N 29°56' W 093°05'1 2.3
2017-Oct-17 17:31N 29°56' W 093°06'2 3.7
2017-Oct-17 17:01N 29°56' W 093°08'1 1.9
2017-Oct-17 16:31N 29°56' W 093°09'0 0.0
2017-Oct-17 16:01N 29°56' W 093°09'0 0.0
2017-Oct-17 15:31N 29°56' W 093°09'0 0.0
2017-Oct-17 15:00N 29°56' W 093°09'0 0.0
2017-Oct-17 14:30N 29°56' W 093°09'0 0.0
2017-Oct-17 14:00N 29°56' W 093°09'0 0.0
2017-Oct-17 13:30N 29°56' W 093°09'0 0.0
2017-Oct-17 13:00N 29°56' W 093°09'0 0.0
2017-Oct-17 12:30N 29°56' W 093°09'0 0.0
2017-Oct-17 12:00N 29°56' W 093°09'0 0.0
2017-Oct-17 11:30N 29°56' W 093°09'0 0.0
2017-Oct-17 11:00N 29°56' W 093°09'0 0.0
2017-Oct-17 10:30N 29°56' W 093°09'0 0.0
2017-Oct-17 10:00N 29°56' W 093°09'0 0.0
2017-Oct-17 09:30N 29°56' W 093°09'0 0.0
2017-Oct-17 09:00N 29°56' W 093°09'0 0.0
2017-Oct-17 08:30N 29°56' W 093°09'0 0.0
2017-Oct-17 08:00N 29°56' W 093°09'0 0.0
2017-Oct-17 07:30N 29°56' W 093°09'0 0.0
2017-Oct-17 07:00N 29°56' W 093°09'0 0.0
2017-Oct-17 06:30N 29°56' W 093°09'0 0.0
2017-Oct-17 06:00N 29°56' W 093°09'0 0.0
2017-Oct-17 05:30N 29°56' W 093°09'0 0.0
2017-Oct-17 05:00N 29°56' W 093°09'0 0.0
2017-Oct-17 04:30N 29°56' W 093°09'0 0.0
2017-Oct-17 04:00N 29°56' W 093°09'0 0.0
2017-Oct-17 03:30N 29°56' W 093°09'0 0.0
2017-Oct-17 03:00N 29°56' W 093°09'0 0.0
2017-Oct-17 02:30N 29°56' W 093°09'0 0.0
2017-Oct-17 02:00N 29°56' W 093°09'0 0.0
2017-Oct-17 01:30N 29°56' W 093°09'0 0.0
2017-Oct-17 01:00N 29°56' W 093°09'0 0.0
2017-Oct-17 00:30N 29°56' W 093°09'0 0.0
2017-Oct-17 00:00N 29°56' W 093°09'0 0.0
2017-Oct-16 23:30N 29°56' W 093°09'0 0.1
2017-Oct-16 23:00N 29°56' W 093°09'0 0.6
2017-Oct-16 22:30N 29°56' W 093°09'1 1.3
2017-Oct-16 22:00N 29°56' W 093°10'0 0.0
2017-Oct-16 21:30N 29°56' W 093°10'0 0.3
2017-Oct-16 21:00N 29°56' W 093°10'0 0.0
2017-Oct-16 20:30N 29°56' W 093°10'0 0.1
2017-Oct-16 20:00N 29°56' W 093°10'0 0.1
2017-Oct-16 19:30N 29°56' W 093°10'0 0.0
2017-Oct-16 19:00N 29°56' W 093°10'0 0.3
2017-Oct-16 18:30N 29°56' W 093°10'0 0.6
2017-Oct-16 18:00N 29°56' W 093°09'0 0.0
2017-Oct-16 17:30N 29°56' W 093°09'0 0.0
2017-Oct-16 17:00N 29°56' W 093°09'0 0.2
2017-Oct-16 16:30N 29°56' W 093°09'0 0.0
2017-Oct-16 16:01N 29°56' W 093°09'0 0.0
2017-Oct-16 15:31N 29°56' W 093°09'0 0.0
2017-Oct-16 15:01N 29°56' W 093°09'0 0.0
2017-Oct-16 14:31N 29°56' W 093°09'0 0.0
2017-Oct-16 13:31N 29°56' W 093°09'0 0.0
2017-Oct-16 13:01N 29°56' W 093°09'0 0.0
2017-Oct-16 12:31N 29°56' W 093°09'0 0.0
2017-Oct-16 12:01N 29°56' W 093°09'0 0.0
2017-Oct-16 11:31N 29°56' W 093°09'0 0.0
2017-Oct-16 11:01N 29°56' W 093°09'0 0.0
2017-Oct-16 10:31N 29°56' W 093°09'0 0.0
2017-Oct-16 10:01N 29°56' W 093°09'0 0.0
2017-Oct-16 09:31N 29°56' W 093°09'0 0.0
2017-Oct-16 09:01N 29°56' W 093°09'0 0.0
2017-Oct-16 08:31N 29°56' W 093°09'0 0.0
2017-Oct-16 08:01N 29°56' W 093°09'0 0.0
2017-Oct-16 07:31N 29°56' W 093°09'0 0.0
2017-Oct-16 07:01N 29°56' W 093°09'0 0.0
2017-Oct-16 06:31N 29°56' W 093°09'0 0.0
2017-Oct-16 06:01N 29°56' W 093°09'0 0.0
2017-Oct-16 05:31N 29°56' W 093°09'0 0.0
2017-Oct-16 05:01N 29°56' W 093°09'0 0.0
2017-Oct-16 04:31N 29°56' W 093°09'0 0.0
2017-Oct-16 04:01N 29°56' W 093°09'0 0.0
2017-Oct-16 03:31N 29°56' W 093°09'0 0.1
2017-Oct-16 03:00N 29°56' W 093°09'1 2.8
2017-Oct-16 02:31N 29°57' W 093°10'3 5.5
2017-Oct-16 02:01N 29°59' W 093°12'3 5.1
2017-Oct-16 01:31N 30°01' W 093°14'2 4.8
2017-Oct-16 01:01N 30°03' W 093°16'2 4.6
2017-Oct-16 00:31N 30°05' W 093°17'1 1.7
2017-Oct-16 00:01N 30°05' W 093°18'1 1.6
2017-Oct-15 23:31N 30°06' W 093°18'0 0.0
2017-Oct-15 23:01N 30°06' W 093°18'0 0.0
2017-Oct-15 22:31N 30°06' W 093°18'0 0.0
2017-Oct-15 22:00N 30°06' W 093°18'0 0.0
2017-Oct-15 21:30N 30°06' W 093°18'0 0.0
2017-Oct-15 21:01N 30°06' W 093°18'0 0.1
2017-Oct-15 20:31N 30°06' W 093°18'2 4.1
2017-Oct-15 20:00N 30°05' W 093°20'3 5.2
2017-Oct-15 19:31N 30°04' W 093°23'3 5.8
2017-Oct-15 19:01N 30°04' W 093°26'3 5.7
2017-Oct-15 18:29N 30°04' W 093°30'20 0.7
2017-Oct-14 14:23N 29°58' W 093°52'0 0.0
2017-Oct-14 14:00N 29°58' W 093°52'10 5.5
2017-Oct-14 12:16N 29°50' W 093°58'0 1.0
2017-Oct-14 12:00N 29°50' W 093°57'4 7.3
2017-Oct-14 11:31N 29°53' W 093°55'6 2.2
2017-Oct-14 08:47N 29°58' W 093°51'4 3.7
2017-Oct-14 07:39N 29°60' W 093°47'1 5.0
2017-Oct-14 07:31N 30°00' W 093°46'4 5.2
2017-Oct-14 06:45N 30°03' W 093°43'1 5.1
2017-Oct-14 06:30N 30°03' W 093°42'1 2.8
2017-Oct-14 06:01N 30°04' W 093°40'3 5.1
2017-Oct-14 05:30N 30°04' W 093°37'2 4.9
2017-Oct-14 05:01N 30°04' W 093°35'2 4.6
2017-Oct-14 04:31N 30°04' W 093°32'2 4.0
2017-Oct-14 04:01N 30°04' W 093°30'2 4.7
2017-Oct-14 03:31N 30°04' W 093°27'2 4.6
2017-Oct-14 03:01N 30°04' W 093°24'2 4.5
2017-Oct-14 02:31N 30°04' W 093°22'2 3.6
2017-Oct-14 02:00N 30°05' W 093°20'1 1.5
2017-Oct-14 01:30N 30°04' W 093°20'3 5.2
2017-Oct-14 01:01N 30°02' W 093°20'3 5.6
2017-Oct-14 00:30N 29°59' W 093°20'12 4.1
2017-Oct-13 21:39N 29°47' W 093°20'0 0.2
2017-Oct-13 21:22N 29°47' W 093°20'0 0.0
2017-Oct-13 13:48N 29°47' W 093°20'0 0.2
2017-Oct-13 13:27N 29°47' W 093°20'0 0.0
2017-Oct-13 11:49N 29°47' W 093°20'0 0.0
2017-Oct-13 08:43N 29°47' W 093°20'0 0.1
2017-Oct-13 08:30N 29°47' W 093°20'1 2.3
2017-Oct-13 08:00N 29°48' W 093°21'3 5.5
2017-Oct-13 07:30N 29°51' W 093°21'3 6.5
2017-Oct-13 07:00N 29°54' W 093°21'3 6.9
2017-Oct-13 06:30N 29°57' W 093°20'3 7.0
2017-Oct-13 06:00N 30°01' W 093°20'4 7.0
2017-Oct-13 05:30N 30°04' W 093°20'1 2.0
2017-Oct-13 05:00N 30°04' W 093°21'2 4.6
2017-Oct-13 04:30N 30°04' W 093°23'3 6.6
2017-Oct-13 04:00N 30°04' W 093°27'4 7.1
2017-Oct-13 03:30N 30°04' W 093°31'11 1.0
2017-Oct-12 16:55N 30°03' W 093°44'2 4.3
2017-Oct-12 16:30N 30°04' W 093°42'2 3.8
2017-Oct-12 15:59N 30°04' W 093°40'2 4.2
2017-Oct-12 15:30N 30°04' W 093°37'2 4.1
2017-Oct-12 14:59N 30°04' W 093°35'2 4.2
2017-Oct-12 14:30N 30°04' W 093°32'2 4.3
2017-Oct-12 14:00N 30°04' W 093°30'2 4.3
2017-Oct-12 13:30N 30°04' W 093°28'2 4.3
2017-Oct-12 13:00N 30°04' W 093°25'2 4.1
2017-Oct-12 12:30N 30°04' W 093°23'1 2.9
2017-Oct-12 12:00N 30°04' W 093°21'2 3.2
2017-Oct-12 11:30N 30°05' W 093°20'1 3.0
2017-Oct-12 11:00N 30°06' W 093°19'0 0.5
2017-Oct-12 10:30N 30°06' W 093°18'0 0.0
2017-Oct-12 10:00N 30°06' W 093°18'0 0.3
2017-Oct-12 09:30N 30°06' W 093°19'0 0.5
2017-Oct-12 09:00N 30°06' W 093°18'0 0.1
2017-Oct-12 08:30N 30°06' W 093°18'0 0.0
2017-Oct-12 08:00N 30°06' W 093°18'0 0.1
2017-Oct-12 07:30N 30°06' W 093°18'0 0.1
2017-Oct-12 07:00N 30°06' W 093°18'0 0.0
2017-Oct-12 06:30N 30°06' W 093°18'0 0.0
2017-Oct-12 06:00N 30°06' W 093°18'0 0.0
2017-Oct-12 05:30N 30°06' W 093°18'0 0.3
2017-Oct-12 05:00N 30°06' W 093°18'0 0.4
2017-Oct-12 04:30N 30°06' W 093°18'1 1.3
2017-Oct-12 04:00N 30°05' W 093°18'1 1.7
2017-Oct-12 03:30N 30°05' W 093°17'1 1.6
2017-Oct-12 03:00N 30°04' W 093°16'0 0.1
2017-Oct-12 02:30N 30°04' W 093°16'0 0.0
2017-Oct-12 02:00N 30°04' W 093°16'0 0.0
2017-Oct-12 01:30N 30°04' W 093°16'0 0.3
2017-Oct-12 01:00N 30°04' W 093°16'1 1.1
2017-Oct-12 00:30N 30°04' W 093°16'1 2.8
2017-Oct-12 00:00N 30°03' W 093°16'0 0.5
2017-Oct-11 23:30N 30°02' W 093°15'1 2.2
2017-Oct-11 23:00N 30°02' W 093°14'2 3.4
2017-Oct-11 22:30N 30°00' W 093°14'1 1.7
2017-Oct-11 22:00N 29°60' W 093°13'1 2.0
2017-Oct-11 21:30N 29°59' W 093°12'1 1.3
2017-Oct-11 21:00N 29°58' W 093°12'3 3.5
2017-Oct-11 20:11N 29°56' W 093°09'1 4.0
2017-Oct-11 20:00N 29°56' W 093°09'1 1.1
2017-Oct-11 19:23N 29°56' W 093°08'114 3.5
2017-Oct-10 10:43N 29°36' W 090°58'2 4.1
2017-Oct-10 10:13N 29°34' W 090°57'1 4.0
2017-Oct-10 10:00N 29°34' W 090°56'2 4.4
2017-Oct-10 09:28N 29°33' W 090°54'2 4.2
2017-Oct-10 09:00N 29°32' W 090°52'2 4.5
2017-Oct-10 08:30N 29°32' W 090°49'2 4.5
2017-Oct-10 08:00N 29°32' W 090°46'2 3.6
2017-Oct-10 07:30N 29°34' W 090°45'2 3.4
2017-Oct-10 07:00N 29°34' W 090°43'2 3.1
2017-Oct-10 06:30N 29°36' W 090°43'1 2.8
2017-Oct-10 06:00N 29°37' W 090°42'1 1.3
2017-Oct-10 05:30N 29°36' W 090°41'0 0.7
2017-Oct-10 05:00N 29°36' W 090°41'1 2.0
2017-Oct-10 04:30N 29°36' W 090°40'1 1.5
2017-Oct-10 04:00N 29°36' W 090°39'0 0.9
2017-Oct-10 03:30N 29°35' W 090°38'1 1.5
2017-Oct-10 03:00N 29°35' W 090°38'2 3.8
2017-Oct-10 02:30N 29°35' W 090°36'  

Dump ship's entire track history